Time;durP1;ratioP1;P1;durP2;ratioP2;P2;SDS_P1;SDS_P2;PMS_P1;PMS_P2;Temp;Humidity;BMP_temperature;BMP_pressure;BME280_temperature;BME280_humidity;BME280_pressure;Samples;Min_cycle;Max_cycle;Signal;HPM_P1;HPM_P2
2022/05/15 00:00:56;;;;;;;;;16.33;10.33;;;;;;;;5060248;28;45423;-79
2022/05/15 00:03:23;;;;;;;;;14.00;12.00;;;;;;;;5060078;28;45344;-78
2022/05/15 00:05:53;;;;;;;;;12.67;12.33;;;;;;;;5059731;28;45289;-78
2022/05/15 00:08:18;;;;;;;;;13.33;12.33;;;;;;;;5059827;28;45303;-77
2022/05/15 00:10:46;;;;;;;;;13.67;10.00;;;;;;;;5060192;28;45285;-77
2022/05/15 00:13:12;;;;;;;;;13.67;11.33;;;;;;;;5059832;28;46581;-78
2022/05/15 00:15:37;;;;;;;;;14.33;14.33;;;;;;;;5059789;28;45484;-79
2022/05/15 00:18:03;;;;;;;;;13.33;11.67;;;;;;;;5059810;28;45190;-77
2022/05/15 00:20:28;;;;;;;;;13.33;10.67;;;;;;;;5060018;28;45444;-79
2022/05/15 00:22:54;;;;;;;;;12.67;11.33;;;;;;;;5059506;28;45506;-78
2022/05/15 00:25:19;;;;;;;;;12.33;10.33;;;;;;;;5059275;28;45361;-78
2022/05/15 00:27:44;;;;;;;;;17.33;11.33;;;;;;;;5059943;28;45344;-79
2022/05/15 00:30:10;;;;;;;;;14.33;13.67;;;;;;;;5059825;28;45414;-78
2022/05/15 00:32:35;;;;;;;;;19.33;12.00;;;;;;;;5041079;28;47364;-77
2022/05/15 00:35:00;;;;;;;;;12.33;12.33;;;;;;;;5059857;28;45275;-78
2022/05/15 00:37:25;;;;;;;;;13.67;13.67;;;;;;;;5059593;28;45383;-77
2022/05/15 00:39:51;;;;;;;;;21.00;13.67;;;;;;;;5059703;28;45303;-77
2022/05/15 00:42:16;;;;;;;;;20.00;16.33;;;;;;;;5059202;28;45192;-79
2022/05/15 00:44:42;;;;;;;;;14.00;13.33;;;;;;;;5059373;28;45281;-78
2022/05/15 00:47:07;;;;;;;;;14.33;13.00;;;;;;;;5059748;28;45594;-76
2022/05/15 00:49:34;;;;;;;;;18.33;15.33;;;;;;;;5075058;28;45381;-78
2022/05/15 00:52:02;;;;;;;;;13.00;12.67;;;;;;;;5059317;28;45509;-77
2022/05/15 00:54:34;;;;;;;;;15.67;13.00;;;;;;;;5057792;28;45300;-78
2022/05/15 00:57:07;;;;;;;;;17.33;17.33;;;;;;;;5058859;28;45256;-79
2022/05/15 00:59:34;;;;;;;;;17.67;17.00;;;;;;;;5059428;28;45436;-77
2022/05/15 01:01:59;;;;;;;;;13.00;11.67;;;;;;;;5059058;28;46677;-78
2022/05/15 01:04:24;;;;;;;;;15.00;10.67;;;;;;;;5059146;28;45346;-75
2022/05/15 01:06:49;;;;;;;;;15.00;13.00;;;;;;;;5059237;28;45311;-77
2022/05/15 01:09:15;;;;;;;;;18.67;16.67;;;;;;;;5059126;28;45458;-77
2022/05/15 01:11:42;;;;;;;;;14.00;13.33;;;;;;;;5059042;28;46297;-78
2022/05/15 01:14:09;;;;;;;;;21.67;16.33;;;;;;;;5059132;28;45320;-77
2022/05/15 01:16:35;;;;;;;;;16.67;14.33;;;;;;;;5058894;28;45249;-78
2022/05/15 01:19:00;;;;;;;;;11.67;10.33;;;;;;;;5059168;28;45364;-79
2022/05/15 01:21:28;;;;;;;;;17.00;17.00;;;;;;;;5058759;28;46353;-80
2022/05/15 01:23:53;;;;;;;;;20.00;14.33;;;;;;;;5058433;28;45382;-77
2022/05/15 01:26:20;;;;;;;;;18.00;16.67;;;;;;;;5059137;28;45319;-76
2022/05/15 01:28:45;;;;;;;;;20.33;14.00;;;;;;;;5059060;28;45331;-78
2022/05/15 01:31:11;;;;;;;;;19.33;15.67;;;;;;;;5058669;28;45314;-77
2022/05/15 01:33:36;;;;;;;;;20.00;17.00;;;;;;;;5058477;28;45326;-78
2022/05/15 01:36:01;;;;;;;;;13.33;9.00;;;;;;;;5058811;28;45286;-78
2022/05/15 01:38:27;;;;;;;;;23.00;16.33;;;;;;;;5058885;28;45511;-78
2022/05/15 01:40:52;;;;;;;;;19.00;17.00;;;;;;;;5058519;28;45544;-78
2022/05/15 01:43:17;;;;;;;;;14.00;14.00;;;;;;;;5058759;28;45427;-78
2022/05/15 01:45:43;;;;;;;;;15.67;14.67;;;;;;;;5058585;28;45274;-78
2022/05/15 01:48:08;;;;;;;;;16.33;15.67;;;;;;;;5058674;28;45213;-78
2022/05/15 01:50:33;;;;;;;;;21.67;15.00;;;;;;;;5058470;28;45460;-78
2022/05/15 01:52:59;;;;;;;;;20.00;18.67;;;;;;;;5058263;28;45296;-78
2022/05/15 01:55:24;;;;;;;;;21.67;18.67;;;;;;;;5058671;28;45334;-77
2022/05/15 01:57:49;;;;;;;;;19.33;19.00;;;;;;;;5058330;28;45355;-78
2022/05/15 02:00:16;;;;;;;;;15.67;15.67;;;;;;;;5058148;28;47250;-78
2022/05/15 02:02:42;;;;;;;;;13.33;13.00;;;;;;;;5058449;28;45353;-77
2022/05/15 02:05:08;;;;;;;;;18.33;14.67;;;;;;;;5058249;28;45534;-78
2022/05/15 02:07:33;;;;;;;;;22.67;19.00;;;;;;;;5058554;28;45443;-78
2022/05/15 02:09:58;;;;;;;;;28.67;20.33;;;;;;;;5057907;28;45526;-78
2022/05/15 02:12:23;;;;;;;;;20.33;16.33;;;;;;;;5057994;28;45372;-78
2022/05/15 02:14:49;;;;;;;;;22.00;19.00;;;;;;;;5058408;28;45283;-78
2022/05/15 02:17:14;;;;;;;;;20.67;18.33;;;;;;;;5058184;28;45414;-78
2022/05/15 02:19:39;;;;;;;;;23.67;18.67;;;;;;;;5057900;28;45395;-77
2022/05/15 02:22:04;;;;;;;;;22.67;17.00;;;;;;;;5057783;28;45405;-78
2022/05/15 02:24:31;;;;;;;;;20.00;20.00;;;;;;;;5058200;28;45242;-78
2022/05/15 02:26:56;;;;;;;;;19.67;18.00;;;;;;;;5057786;28;45303;-78
2022/05/15 02:29:21;;;;;;;;;28.67;22.67;;;;;;;;5073016;28;47559;-78
2022/05/15 02:31:47;;;;;;;;;26.33;21.33;;;;;;;;5057694;28;45344;-78
2022/05/15 02:34:12;;;;;;;;;24.33;20.00;;;;;;;;5057924;28;45379;-78
2022/05/15 02:36:37;;;;;;;;;25.33;18.00;;;;;;;;5058124;28;45265;-78
2022/05/15 02:39:02;;;;;;;;;24.33;20.33;;;;;;;;5057563;28;45489;-78
2022/05/15 02:41:28;;;;;;;;;23.00;20.67;;;;;;;;5057575;28;45251;-77
2022/05/15 02:43:54;;;;;;;;;30.33;21.00;;;;;;;;5057685;28;45356;-76
2022/05/15 02:46:19;;;;;;;;;25.33;20.33;;;;;;;;5057683;28;45387;-78
2022/05/15 02:51:29;;;;;;;;;24.67;21.67;;;;;;;;5057356;28;45209;-77
2022/05/15 02:53:54;;;;;;;;;23.00;19.00;;;;;;;;5057204;28;45474;-78
2022/05/15 02:56:21;;;;;;;;;21.00;19.00;;;;;;;;5057449;28;45356;-78
2022/05/15 02:58:46;;;;;;;;;23.00;18.00;;;;;;;;5057342;28;45536;-78
2022/05/15 03:01:12;;;;;;;;;23.67;21.00;;;;;;;;5057295;28;45367;-77
2022/05/15 03:03:37;;;;;;;;;22.33;19.67;;;;;;;;5057666;28;45248;-78
2022/05/15 03:06:03;;;;;;;;;25.33;22.33;;;;;;;;5057407;28;45193;-78
2022/05/15 03:08:28;;;;;;;;;26.67;20.67;;;;;;;;5057088;28;45594;-77
2022/05/15 03:10:54;;;;;;;;;22.67;19.67;;;;;;;;5057225;28;45483;-78
2022/05/15 03:13:19;;;;;;;;;24.00;19.67;;;;;;;;5057423;28;45323;-78
2022/05/15 03:15:44;;;;;;;;;30.33;23.00;;;;;;;;5057494;28;45569;-78
2022/05/15 03:18:10;;;;;;;;;25.00;19.67;;;;;;;;5062991;27;46395;-78
2022/05/15 03:20:35;;;;;;;;;25.00;20.67;;;;;;;;5071809;28;45865;-78
2022/05/15 03:23:01;;;;;;;;;25.33;22.00;;;;;;;;5067299;27;45567;-76
2022/05/15 03:25:27;;;;;;;;;27.67;23.67;;;;;;;;5063804;28;45415;-78
2022/05/15 03:27:53;;;;;;;;;25.33;19.33;;;;;;;;5063825;28;46142;-78
2022/05/15 03:30:18;;;;;;;;;24.67;19.67;;;;;;;;5063594;28;45274;-76
2022/05/15 03:32:44;;;;;;;;;24.33;20.67;;;;;;;;5063834;28;45398;-77
2022/05/15 03:35:09;;;;;;;;;25.33;21.33;;;;;;;;5064142;28;45225;-77
2022/05/15 03:37:35;;;;;;;;;21.00;19.00;;;;;;;;5063448;28;45484;-77
2022/05/15 03:40:00;;;;;;;;;23.00;21.00;;;;;;;;5079055;28;45332;-77
2022/05/15 03:42:26;;;;;;;;;22.33;18.67;;;;;;;;5063544;28;45381;-78
2022/05/15 03:44:52;;;;;;;;;22.33;20.33;;;;;;;;5063677;28;45430;-77
2022/05/15 03:47:17;;;;;;;;;29.67;19.33;;;;;;;;5063663;28;46467;-77
2022/05/15 03:49:42;;;;;;;;;25.33;20.67;;;;;;;;5063427;28;45257;-78
2022/05/15 03:52:10;;;;;;;;;25.33;21.33;;;;;;;;5063716;28;45741;-78
2022/05/15 03:54:35;;;;;;;;;32.33;23.00;;;;;;;;5063443;28;45365;-78
2022/05/15 03:57:00;;;;;;;;;24.00;18.33;;;;;;;;5062873;28;46328;-76
2022/05/15 03:59:31;;;;;;;;;23.33;21.00;;;;;;;;5063499;28;45355;-78
2022/05/15 04:02:00;;;;;;;;;21.00;18.33;;;;;;;;5063331;28;45380;-78
2022/05/15 04:04:25;;;;;;;;;26.33;17.00;;;;;;;;5063599;28;45308;-77
2022/05/15 04:06:51;;;;;;;;;27.67;22.67;;;;;;;;5062994;28;47587;-78
2022/05/15 04:09:17;;;;;;;;;28.00;26.33;;;;;;;;5063050;28;45468;-77
2022/05/15 04:11:42;;;;;;;;;24.67;22.00;;;;;;;;5063423;28;45490;-78
2022/05/15 04:14:07;;;;;;;;;27.00;22.67;;;;;;;;5063155;28;45343;-77
2022/05/15 04:16:33;;;;;;;;;23.33;19.33;;;;;;;;5063197;28;46132;-78
2022/05/15 04:18:58;;;;;;;;;27.00;22.00;;;;;;;;5063145;28;45222;-78
2022/05/15 04:21:24;;;;;;;;;25.33;23.00;;;;;;;;5063186;28;45340;-78
2022/05/15 04:23:49;;;;;;;;;23.67;21.33;;;;;;;;5063239;28;45492;-78
2022/05/15 04:26:14;;;;;;;;;29.67;23.33;;;;;;;;5062749;28;45525;-78
2022/05/15 04:28:41;;;;;;;;;32.67;21.00;;;;;;;;5061883;28;45293;-78
2022/05/15 04:31:07;;;;;;;;;24.33;20.00;;;;;;;;5059172;28;45297;-77
2022/05/15 04:33:32;;;;;;;;;20.33;19.33;;;;;;;;5059917;28;45427;-78
2022/05/15 04:35:58;;;;;;;;;28.67;24.67;;;;;;;;5059668;28;45730;-77
2022/05/15 04:38:23;;;;;;;;;24.67;23.33;;;;;;;;5059486;28;45277;-77
2022/05/15 04:40:49;;;;;;;;;21.67;20.67;;;;;;;;5059792;28;45354;-78
2022/05/15 04:43:14;;;;;;;;;29.00;22.00;;;;;;;;5059743;28;45400;-77
2022/05/15 04:45:39;;;;;;;;;29.00;26.33;;;;;;;;5059261;28;46622;-77
2022/05/15 04:48:04;;;;;;;;;24.33;21.67;;;;;;;;5059372;28;45426;-77
2022/05/15 04:50:30;;;;;;;;;25.00;21.33;;;;;;;;5059335;28;45338;-77
2022/05/15 04:52:56;;;;;;;;;28.00;22.67;;;;;;;;5059788;28;45306;-78
2022/05/15 04:55:21;;;;;;;;;36.33;31.33;;;;;;;;5059074;28;45331;-77
2022/05/15 04:57:46;;;;;;;;;26.00;20.33;;;;;;;;5059091;28;45298;-77
2022/05/15 05:00:13;;;;;;;;;29.00;25.67;;;;;;;;5059327;28;45345;-77
2022/05/15 05:02:39;;;;;;;;;27.67;25.00;;;;;;;;5059505;28;45445;-78
2022/05/15 05:05:04;;;;;;;;;30.33;26.33;;;;;;;;5059122;28;45243;-77
2022/05/15 05:07:30;;;;;;;;;31.00;27.00;;;;;;;;5059102;28;45309;-78
2022/05/15 05:09:55;;;;;;;;;29.50;26.00;;;;;;;;5059127;28;45384;-76
2022/05/15 05:12:20;;;;;;;;;31.33;27.00;;;;;;;;5059120;28;45444;-75
2022/05/15 05:14:46;;;;;;;;;26.00;26.00;;;;;;;;5058866;28;46351;-77
2022/05/15 05:17:11;;;;;;;;;19.67;19.67;;;;;;;;5059201;28;45598;-78
2022/05/15 05:19:36;;;;;;;;;25.00;22.00;;;;;;;;5059027;28;45523;-77
2022/05/15 05:22:02;;;;;;;;;28.33;23.33;;;;;;;;5058957;28;45371;-77
2022/05/15 05:24:27;;;;;;;;;29.33;23.00;;;;;;;;5058766;28;45907;-78
2022/05/15 05:26:52;;;;;;;;;31.67;26.67;;;;;;;;5074339;28;45471;-77
2022/05/15 05:29:17;;;;;;;;;28.33;23.67;;;;;;;;5058926;28;45257;-77
2022/05/15 05:31:43;;;;;;;;;23.33;23.33;;;;;;;;5058889;28;45446;-77
2022/05/15 05:34:08;;;;;;;;;27.33;23.33;;;;;;;;5058757;28;45358;-78
2022/05/15 05:36:33;;;;;;;;;25.33;21.33;;;;;;;;5058635;28;45386;-77
2022/05/15 05:38:59;;;;;;;;;33.00;26.00;;;;;;;;5058781;28;45371;-77
2022/05/15 05:41:24;;;;;;;;;29.00;26.67;;;;;;;;5058563;28;45336;-77
2022/05/15 05:43:49;;;;;;;;;26.00;22.00;;;;;;;;5058329;28;46105;-77
2022/05/15 05:46:14;;;;;;;;;25.33;20.67;;;;;;;;5058646;28;45260;-76
2022/05/15 05:48:45;;;;;;;;;25.33;20.67;;;;;;;;5058823;28;45245;-77
2022/05/15 05:51:11;;;;;;;;;20.00;17.33;;;;;;;;5058468;28;45341;-77
2022/05/15 05:53:36;;;;;;;;;22.67;21.67;;;;;;;;5058435;28;46294;-78
2022/05/15 05:56:01;;;;;;;;;25.67;21.00;;;;;;;;5058086;28;45220;-77
2022/05/15 05:58:26;;;;;;;;;22.67;19.33;;;;;;;;5058381;28;45232;-76
2022/05/15 06:00:51;;;;;;;;;23.00;20.00;;;;;;;;5058657;28;45348;-77
2022/05/15 06:06:03;;;;;;;;;26.00;21.33;;;;;;;;5058141;28;45523;-77
2022/05/15 06:08:30;;;;;;;;;23.33;20.33;;;;;;;;5058386;28;45387;-77
2022/05/15 06:10:55;;;;;;;;;22.33;19.00;;;;;;;;5058225;28;45466;-77
2022/05/15 06:13:21;;;;;;;;;20.67;20.00;;;;;;;;5057933;28;45968;-75
2022/05/15 06:15:46;;;;;;;;;24.67;20.67;;;;;;;;5058047;28;45422;-77
2022/05/15 06:18:11;;;;;;;;;25.67;18.00;;;;;;;;5058011;28;45237;-77
2022/05/15 06:20:37;;;;;;;;;18.67;17.67;;;;;;;;5058468;28;45288;-78
2022/05/15 06:23:02;;;;;;;;;19.67;18.33;;;;;;;;5057780;28;46496;-76
2022/05/15 06:25:28;;;;;;;;;19.33;18.67;;;;;;;;5057965;28;45447;-76
2022/05/15 06:27:53;;;;;;;;;22.67;19.33;;;;;;;;5057901;28;45278;-78
2022/05/15 06:30:18;;;;;;;;;21.67;20.00;;;;;;;;5058069;28;45359;-75
2022/05/15 06:32:43;;;;;;;;;19.33;19.33;;;;;;;;5057662;28;46264;-76
2022/05/15 06:35:10;;;;;;;;;22.33;19.33;;;;;;;;5057823;28;45382;-76
2022/05/15 06:37:35;;;;;;;;;26.33;21.67;;;;;;;;5057782;28;45348;-77
2022/05/15 06:40:01;;;;;;;;;21.33;20.00;;;;;;;;5057666;28;45379;-77
2022/05/15 06:42:28;;;;;;;;;24.67;21.33;;;;;;;;5057625;28;46572;-77
2022/05/15 06:44:54;;;;;;;;;18.33;18.33;;;;;;;;5057628;28;45286;-75
2022/05/15 06:47:19;;;;;;;;;21.00;19.67;;;;;;;;5057611;28;45820;-77
2022/05/15 06:49:44;;;;;;;;;22.67;20.00;;;;;;;;5058018;28;45290;-78
2022/05/15 06:52:09;;;;;;;;;22.67;20.33;;;;;;;;5056496;28;46306;-76
2022/05/15 06:54:35;;;;;;;;;24.33;19.67;;;;;;;;5057364;28;45403;-77
2022/05/15 06:59:44;;;;;;;;;19.33;16.67;;;;;;;;5057657;28;45316;-75
2022/05/15 07:02:09;;;;;;;;;22.67;18.67;;;;;;;;5056862;28;46260;-75
2022/05/15 07:04:34;;;;;;;;;19.67;17.33;;;;;;;;5057488;28;45524;-78
2022/05/15 07:07:00;;;;;;;;;17.67;16.67;;;;;;;;5057031;28;45307;-78
2022/05/15 07:09:27;;;;;;;;;20.33;17.33;;;;;;;;5057329;28;45389;-79
2022/05/15 07:11:52;;;;;;;;;20.33;16.00;;;;;;;;5056677;28;46567;-76
2022/05/15 07:14:18;;;;;;;;;16.00;15.33;;;;;;;;5056956;28;45356;-75
2022/05/15 07:16:43;;;;;;;;;20.67;20.33;;;;;;;;5056861;28;45427;-77
2022/05/15 07:19:08;;;;;;;;;19.67;16.67;;;;;;;;5056899;28;45450;-77
2022/05/15 07:21:33;;;;;;;;;20.33;20.33;;;;;;;;5056968;28;45286;-76
2022/05/15 07:23:58;;;;;;;;;23.33;19.33;;;;;;;;5057152;28;45269;-77
2022/05/15 07:26:24;;;;;;;;;21.67;18.33;;;;;;;;5057005;28;45227;-78
2022/05/15 07:28:51;;;;;;;;;17.33;16.67;;;;;;;;5057003;28;45317;-75
2022/05/15 07:31:18;;;;;;;;;16.33;16.33;;;;;;;;5056681;28;46691;-77
2022/05/15 07:33:44;;;;;;;;;20.67;19.33;;;;;;;;5056728;28;45353;-76
2022/05/15 07:36:09;;;;;;;;;16.00;15.67;;;;;;;;5057116;28;45679;-78
2022/05/15 07:38:34;;;;;;;;;18.67;16.00;;;;;;;;5056880;28;45449;-77
2022/05/15 07:41:00;;;;;;;;;21.67;17.67;;;;;;;;5056867;28;46201;-76
2022/05/15 07:43:25;;;;;;;;;16.67;14.33;;;;;;;;5056537;28;45347;-77
2022/05/15 07:45:50;;;;;;;;;16.67;15.00;;;;;;;;5057806;28;45459;-76
2022/05/15 07:48:16;;;;;;;;;18.33;15.33;;;;;;;;5057161;28;45292;-75
2022/05/15 07:50:41;;;;;;;;;13.00;11.00;;;;;;;;5056387;28;45388;-76
2022/05/15 07:53:06;;;;;;;;;13.33;11.00;;;;;;;;5056601;28;45383;-75
2022/05/15 07:55:31;;;;;;;;;16.67;11.00;;;;;;;;5056089;28;45375;-76
2022/05/15 07:57:57;;;;;;;;;14.00;12.33;;;;;;;;5057004;28;45346;-77
2022/05/15 08:00:22;;;;;;;;;19.00;14.33;;;;;;;;5056487;28;46740;-77
2022/05/15 08:02:47;;;;;;;;;11.33;10.33;;;;;;;;5056503;28;45359;-75
2022/05/15 08:08:02;;;;;;;;;10.00;10.00;;;;;;;;5060408;28;45384;-76
2022/05/15 08:10:32;;;;;;;;;12.00;11.00;;;;;;;;5060020;28;45443;-75
2022/05/15 08:12:57;;;;;;;;;12.00;11.33;;;;;;;;5059817;28;45303;-77
2022/05/15 08:15:22;;;;;;;;;12.67;11.00;;;;;;;;5060007;28;45392;-77
2022/05/15 08:17:48;;;;;;;;;17.33;10.67;;;;;;;;5060073;28;45506;-77
2022/05/15 08:23:42;;;;;;;;;15.33;12.67;;;;;;;;5059497;28;45317;-77
2022/05/15 08:25:43;;;;;;;;;10.00;9.67;;;;;;;;5059285;28;45368;-77
2022/05/15 08:28:09;;;;;;;;;11.00;9.67;;;;;;;;5060026;28;45383;-78
2022/05/15 08:30:34;;;;;;;;;15.67;11.67;;;;;;;;5059596;28;46249;-77
2022/05/15 08:32:59;;;;;;;;;13.67;13.00;;;;;;;;5079767;28;45457;-79
2022/05/15 08:35:24;;;;;;;;;18.00;13.00;;;;;;;;5080121;28;45239;-76
2022/05/15 08:37:50;;;;;;;;;9.33;9.33;;;;;;;;5080126;27;45431;-76
2022/05/15 08:40:17;;;;;;;;;11.00;10.00;;;;;;;;5079547;27;46310;-76
2022/05/15 08:42:49;;;;;;;;;10.00;10.00;;;;;;;;5079690;27;45811;-76
2022/05/15 08:45:16;;;;;;;;;13.67;10.33;;;;;;;;5079880;27;45413;-78
2022/05/15 08:47:41;;;;;;;;;8.67;8.67;;;;;;;;5079666;27;45327;-76
2022/05/15 08:50:09;;;;;;;;;9.00;9.00;;;;;;;;5079530;27;46715;-76
2022/05/15 08:52:39;;;;;;;;;13.33;9.00;;;;;;;;5079341;27;45557;-79
2022/05/15 08:55:24;;;;;;;;;10.33;10.33;;;;;;;;5079599;27;45277;-76
2022/05/15 08:57:52;;;;;;;;;12.33;10.00;;;;;;;;5078735;28;45484;-77
2022/05/15 09:00:31;;;;;;;;;8.00;8.00;;;;;;;;5079461;28;45230;-76
2022/05/15 09:03:03;;;;;;;;;10.67;10.33;;;;;;;;5079418;27;45275;-79
2022/05/15 09:05:29;;;;;;;;;9.33;9.33;;;;;;;;5079486;27;45837;-77
2022/05/15 09:08:14;;;;;;;;;13.33;13.00;;;;;;;;5079667;27;45434;-80
2022/05/15 09:10:48;;;;;;;;;12.33;9.33;;;;;;;;5078326;27;46243;-77
2022/05/15 09:13:29;;;;;;;;;9.33;9.33;;;;;;;;5078964;27;45535;-79
2022/05/15 09:15:58;;;;;;;;;12.33;12.33;;;;;;;;5078276;27;45344;-76
2022/05/15 09:18:24;;;;;;;;;9.67;9.33;;;;;;;;5079157;27;45437;-77
2022/05/15 09:20:52;;;;;;;;;9.00;9.00;;;;;;;;5079082;27;45316;-78
2022/05/15 09:23:34;;;;;;;;;8.00;8.00;;;;;;;;5078925;27;45339;-78
2022/05/15 09:26:20;;;;;;;;;11.00;9.33;;;;;;;;5079394;27;45281;-76
2022/05/15 09:28:45;;;;;;;;;11.33;8.00;;;;;;;;5079320;28;45330;-79
2022/05/15 09:31:26;;;;;;;;;9.00;8.00;;;;;;;;5078842;27;45370;-79
2022/05/15 09:33:54;;;;;;;;;11.00;8.67;;;;;;;;5078602;27;45367;-78
2022/05/15 09:36:39;;;;;;;;;8.67;6.67;;;;;;;;5077971;27;45890;-79
2022/05/15 09:39:08;;;;;;;;;8.00;7.00;;;;;;;;5071492;27;45660;-78
2022/05/15 09:44:23;;;;;;;;;5.00;4.33;;;;;;;;5058728;28;45344;-77
2022/05/15 09:46:55;;;;;;;;;7.00;7.00;;;;;;;;5058644;28;45373;-81
2022/05/15 09:49:24;;;;;;;;;12.00;8.33;;;;;;;;5058810;28;45319;-80
2022/05/15 09:51:52;;;;;;;;;8.33;7.00;;;;;;;;5058498;28;46369;-77
2022/05/15 09:54:32;;;;;;;;;8.00;8.00;;;;;;;;5058102;28;45352;-80
2022/05/15 09:57:27;;;;;;;;;7.33;6.00;;;;;;;;5058047;28;45474;-75
2022/05/15 09:59:55;;;;;;;;;7.00;7.00;;;;;;;;5056306;28;45470;-80
2022/05/15 10:02:22;;;;;;;;;5.33;5.33;;;;;;;;5055382;28;46266;-81
2022/05/15 10:04:49;;;;;;;;;8.00;6.00;;;;;;;;5055447;28;45653;-79
2022/05/15 10:07:35;;;;;;;;;7.00;7.00;;;;;;;;5055254;28;45670;-75
2022/05/15 10:10:15;;;;;;;;;7.67;5.67;;;;;;;;5055425;28;45699;-76
2022/05/15 10:12:42;;;;;;;;;7.33;5.00;;;;;;;;5055349;28;45500;-73
2022/05/15 10:15:07;;;;;;;;;11.00;9.00;;;;;;;;5055754;28;45479;-79
2022/05/15 10:17:33;;;;;;;;;8.67;5.00;;;;;;;;5055820;28;45348;-77
2022/05/15 10:20:30;;;;;;;;;7.33;5.67;;;;;;;;5056144;28;45417;-78
2022/05/15 10:23:22;;;;;;;;;5.00;5.00;;;;;;;;4995409;28;47174;-75
2022/05/15 10:25:59;;;;;;;;;5.50;3.50;;;;;;;;4993022;28;45454;-75
2022/05/15 10:28:24;;;;;;;;;6.50;5.75;;;;;;;;4994475;28;45466;-75
2022/05/15 10:31:03;;;;;;;;;6.00;6.00;;;;;;;;4996245;28;45425;-77
2022/05/15 10:33:32;;;;;;;;;6.25;5.50;;;;;;;;4995528;28;45430;-78
2022/05/15 10:36:03;;;;;;;;;5.25;5.00;;;;;;;;5002890;28;45523;-77
2022/05/15 10:38:42;;;;;;;;;5.75;5.00;;;;;;;;5015205;28;45358;-78
2022/05/15 10:41:09;;;;;;;;;8.00;6.00;;;;;;;;5016078;28;45337;-82
2022/05/15 10:43:44;;;;;;;;;4.75;4.00;;;;;;;;5015123;28;46602;-80
2022/05/15 10:46:27;;;;;;;;;2.50;2.50;;;;;;;;5015254;28;45366;-83
2022/05/15 10:49:11;;;;;;;;;6.25;6.25;;;;;;;;5015405;28;45516;-76
2022/05/15 10:51:48;;;;;;;;;4.50;3.00;;;;;;;;5015438;28;45448;-75
2022/05/15 10:57:27;;;;;;;;;9.75;6.75;;;;;;;;5014780;28;45471;-80
2022/05/15 11:00:00;;;;;;;;;7.00;5.75;;;;;;;;5073022;27;45242;-76
2022/05/15 11:02:44;;;;;;;;;4.00;4.00;;;;;;;;5057361;28;45408;-75
2022/05/15 11:05:10;;;;;;;;;7.00;5.67;;;;;;;;5057042;28;46108;-76
2022/05/15 11:07:38;;;;;;;;;4.33;4.33;;;;;;;;5059212;28;45563;-78
2022/05/15 11:10:22;;;;;;;;;4.67;4.67;;;;;;;;5066104;28;45383;-77
2022/05/15 11:12:52;;;;;;;;;7.00;4.67;;;;;;;;5057201;28;45403;-74
2022/05/15 11:15:38;;;;;;;;;4.67;4.67;;;;;;;;5057123;28;45236;-75
2022/05/15 11:18:18;;;;;;;;;5.67;4.33;;;;;;;;5056778;28;45373;-74
2022/05/15 11:20:50;;;;;;;;;7.67;4.33;;;;;;;;5056845;28;45327;-77
2022/05/15 11:23:19;;;;;;;;;7.33;5.00;;;;;;;;5056934;28;45465;-77
2022/05/15 11:25:50;;;;;;;;;6.33;6.33;;;;;;;;5056370;28;46193;-75
2022/05/15 11:28:18;;;;;;;;;4.67;4.67;;;;;;;;5056480;28;45995;-77
2022/05/15 11:30:46;;;;;;;;;7.33;6.00;;;;;;;;5057092;28;45372;-78
2022/05/15 11:33:17;;;;;;;;;4.00;4.00;;;;;;;;5057134;28;45308;-81
2022/05/15 11:36:02;;;;;;;;;7.00;6.00;;;;;;;;5056415;28;45345;-73
2022/05/15 11:38:28;;;;;;;;;5.00;5.00;;;;;;;;5056374;28;45515;-82
2022/05/15 11:40:54;;;;;;;;;5.67;5.67;;;;;;;;5060282;28;45324;-82
2022/05/15 11:43:26;;;;;;;;;7.33;6.00;;;;;;;;5060308;28;45427;-81
2022/05/15 11:45:52;;;;;;;;;5.00;5.00;;;;;;;;5060020;28;46162;-78
2022/05/15 11:48:19;;;;;;;;;6.33;5.00;;;;;;;;5060360;28;45353;-76
2022/05/15 11:51:25;;;;;;;;;5.33;4.00;;;;;;;;5060206;28;45438;-72
2022/05/15 11:53:53;;;;;;;;;5.00;5.00;;;;;;;;5058198;28;45437;-71
2022/05/15 11:56:23;;;;;;;;;5.00;5.00;;;;;;;;5057914;28;46785;-80
2022/05/15 11:58:57;;;;;;;;;5.00;4.67;;;;;;;;5057848;28;45998;-78
2022/05/15 12:01:25;;;;;;;;;4.67;4.67;;;;;;;;5057729;28;45888;-79
2022/05/15 12:04:00;;;;;;;;;5.67;4.00;;;;;;;;5058000;28;45456;-80
2022/05/15 12:06:28;;;;;;;;;6.33;4.33;;;;;;;;5057695;28;46205;-80
2022/05/15 12:09:12;;;;;;;;;4.00;3.33;;;;;;;;5057477;28;45298;-81
2022/05/15 12:11:37;;;;;;;;;6.00;6.00;;;;;;;;5057756;28;45224;-81
2022/05/15 12:14:23;;;;;;;;;5.00;4.00;;;;;;;;5057661;28;45448;-78
2022/05/15 12:17:08;;;;;;;;;4.67;3.00;;;;;;;;5047165;28;46721;-80
2022/05/15 12:19:40;;;;;;;;;5.00;3.00;;;;;;;;5046767;28;45281;-78
2022/05/15 12:22:08;;;;;;;;;5.00;5.00;;;;;;;;5057717;28;45371;-77
2022/05/15 12:24:36;;;;;;;;;2.00;2.00;;;;;;;;5058940;28;45358;-80
2022/05/15 12:27:10;;;;;;;;;3.67;3.33;;;;;;;;5059683;28;46273;-78
2022/05/15 12:29:38;;;;;;;;;7.00;5.00;;;;;;;;5059690;28;45561;-79
2022/05/15 12:32:07;;;;;;;;;7.00;4.00;;;;;;;;5059755;28;45389;-78
2022/05/15 12:34:35;;;;;;;;;5.00;3.00;;;;;;;;5059785;28;45328;-80
2022/05/15 12:37:03;;;;;;;;;3.00;3.00;;;;;;;;5058140;28;47751;-82
2022/05/15 12:39:33;;;;;;;;;5.33;5.00;;;;;;;;5057965;28;45423;-81
2022/05/15 12:42:00;;;;;;;;;5.00;5.00;;;;;;;;5059499;28;45192;-83
2022/05/15 12:44:33;;;;;;;;;5.33;4.00;;;;;;;;5059493;28;45569;-81
2022/05/15 12:47:03;;;;;;;;;4.00;4.00;;;;;;;;5069255;28;46109;-80
2022/05/15 12:49:30;;;;;;;;;4.00;4.00;;;;;;;;5079342;27;45481;-80
2022/05/15 12:52:07;;;;;;;;;4.33;4.33;;;;;;;;5078950;27;45363;-82
2022/05/15 12:54:33;;;;;;;;;3.00;3.00;;;;;;;;5079879;27;45335;-84
2022/05/15 12:56:59;;;;;;;;;7.00;4.00;;;;;;;;5078012;27;46984;-81
2022/05/15 12:59:26;;;;;;;;;5.00;5.00;;;;;;;;5079793;27;45361;-80
2022/05/15 13:01:51;;;;;;;;;4.33;4.33;;;;;;;;5079423;27;45343;-83
2022/05/15 13:04:18;;;;;;;;;5.67;3.67;;;;;;;;5079534;28;45327;-80
2022/05/15 13:06:53;;;;;;;;;4.33;3.00;;;;;;;;5079763;27;46395;-79
2022/05/15 13:09:22;;;;;;;;;3.00;3.00;;;;;;;;5079220;27;45392;-79
2022/05/15 13:11:54;;;;;;;;;4.00;4.00;;;;;;;;5078410;27;45306;-82
2022/05/15 13:14:19;;;;;;;;;4.00;4.00;;;;;;;;5079802;27;45387;-81
2022/05/15 13:16:47;;;;;;;;;4.00;3.00;;;;;;;;5079412;27;45299;-83
2022/05/15 13:19:14;;;;;;;;;3.00;3.00;;;;;;;;5079353;27;45251;-82
2022/05/15 13:21:45;;;;;;;;;5.33;4.33;;;;;;;;5079338;27;45273;-81
2022/05/15 13:24:10;;;;;;;;;4.00;4.00;;;;;;;;5079351;27;45390;-81
2022/05/15 13:26:40;;;;;;;;;3.00;3.00;;;;;;;;5079043;27;46401;-83
2022/05/15 13:29:08;;;;;;;;;5.67;5.00;;;;;;;;5079315;27;45465;-81
2022/05/15 13:31:34;;;;;;;;;5.67;3.00;;;;;;;;5079275;27;45380;-83
2022/05/15 13:34:01;;;;;;;;;4.67;4.33;;;;;;;;5079526;27;45294;-79
2022/05/15 13:36:26;;;;;;;;;4.33;2.67;;;;;;;;5078831;27;45554;-82
2022/05/15 13:44:26;;;;;;;;;3.67;3.67;;;;;;;;5078986;28;45242;-82
2022/05/15 13:46:59;;;;;;;;;4.67;3.67;;;;;;;;5078881;27;45387;-84
2022/05/15 13:49:35;;;;;;;;;4.33;4.00;;;;;;;;5078609;27;45202;-81
2022/05/15 13:52:18;;;;;;;;;1.00;1.00;;;;;;;;5079005;27;45347;-82
2022/05/15 13:54:44;;;;;;;;;2.33;2.33;;;;;;;;5087506;27;45216;-81
2022/05/15 13:57:09;;;;;;;;;4.00;2.00;;;;;;;;5098453;27;46536;-68
2022/05/15 13:59:38;;;;;;;;;4.00;2.00;;;;;;;;5096902;27;45435;-78
2022/05/15 14:02:04;;;;;;;;;2.33;2.33;;;;;;;;5082662;27;45441;-80
2022/05/15 14:04:29;;;;;;;;;3.00;3.00;;;;;;;;5079390;27;45499;-78
2022/05/15 14:06:55;;;;;;;;;2.00;2.00;;;;;;;;5078065;27;46244;-78
2022/05/15 14:09:21;;;;;;;;;2.00;2.00;;;;;;;;5086620;27;45168;-79
2022/05/15 14:11:48;;;;;;;;;2.00;2.00;;;;;;;;5087618;27;45332;-80
2022/05/15 14:14:14;;;;;;;;;3.00;3.00;;;;;;;;5078102;27;45371;-83
2022/05/15 14:16:39;;;;;;;;;1.67;1.67;;;;;;;;5077791;27;46108;-80
2022/05/15 14:19:15;;;;;;;;;2.00;2.00;;;;;;;;5077621;27;45387;-75
2022/05/15 14:22:00;;;;;;;;;1.00;1.00;;;;;;;;5077887;27;45447;-72
2022/05/15 14:24:26;;;;;;;;;8.00;2.00;;;;;;;;5077365;27;45587;-71
2022/05/15 14:26:52;;;;;;;;;2.67;2.67;;;;;;;;5091520;27;46047;-72
2022/05/15 14:29:17;;;;;;;;;4.00;3.00;;;;;;;;5086338;27;45386;-73
2022/05/15 14:31:43;;;;;;;;;5.00;2.00;;;;;;;;5077841;27;45735;-72
2022/05/15 14:34:08;;;;;;;;;3.67;2.00;;;;;;;;5078010;27;45305;-82
2022/05/15 14:36:34;;;;;;;;;4.00;2.33;;;;;;;;5077630;27;46723;-84
2022/05/15 14:38:59;;;;;;;;;4.00;2.00;;;;;;;;5081063;27;45552;-84
2022/05/15 14:41:25;;;;;;;;;1.67;1.67;;;;;;;;5078679;27;45513;-82
2022/05/15 14:43:51;;;;;;;;;2.00;2.00;;;;;;;;5078278;27;45406;-81
2022/05/15 14:46:18;;;;;;;;;4.00;3.00;;;;;;;;5077400;27;46013;-82
2022/05/15 14:48:44;;;;;;;;;2.00;2.00;;;;;;;;5080779;27;45365;-83
2022/05/15 14:51:20;;;;;;;;;5.67;2.00;;;;;;;;5098001;27;45474;-82
2022/05/15 14:53:46;;;;;;;;;3.00;3.00;;;;;;;;5087582;27;45430;-84
2022/05/15 14:56:14;;;;;;;;;2.67;2.33;;;;;;;;5077125;27;45405;-79